sensor_id;sensor_type;location;lat;lon;timestamp;P1;durP1;ratioP1;P2;durP2;ratioP2
57643;SDS011;43474;46.510;6.686;2023-04-24T00:00:13;534.13;;;505.85;;
57643;SDS011;43474;46.510;6.686;2023-04-24T00:02:59;527.30;;;499.55;;
57643;SDS011;43474;46.510;6.686;2023-04-24T00:05:25;543.92;;;514.75;;
57643;SDS011;43474;46.510;6.686;2023-04-24T00:07:50;539.22;;;510.27;;
57643;SDS011;43474;46.510;6.686;2023-04-24T00:10:18;540.28;;;511.58;;
57643;SDS011;43474;46.510;6.686;2023-04-24T00:12:43;533.30;;;505.13;;
57643;SDS011;43474;46.510;6.686;2023-04-24T00:15:10;511.88;;;485.15;;
57643;SDS011;43474;46.510;6.686;2023-04-24T00:17:36;533.00;;;504.92;;
57643;SDS011;43474;46.510;6.686;2023-04-24T00:20:03;520.67;;;493.27;;
57643;SDS011;43474;46.510;6.686;2023-04-24T00:22:29;532.05;;;504.08;;
57643;SDS011;43474;46.510;6.686;2023-04-24T00:24:56;534.80;;;506.67;;
57643;SDS011;43474;46.510;6.686;2023-04-24T00:27:22;524.85;;;497.23;;
57643;SDS011;43474;46.510;6.686;2023-04-24T00:29:48;577.17;;;546.20;;
57643;SDS011;43474;46.510;6.686;2023-04-24T00:32:14;558.97;;;529.22;;
57643;SDS011;43474;46.510;6.686;2023-04-24T00:34:40;572.53;;;541.85;;
57643;SDS011;43474;46.510;6.686;2023-04-24T00:37:05;550.63;;;521.42;;
57643;SDS011;43474;46.510;6.686;2023-04-24T00:39:31;590.25;;;557.97;;
57643;SDS011;43474;46.510;6.686;2023-04-24T00:41:57;589.80;;;557.90;;
57643;SDS011;43474;46.510;6.686;2023-04-24T00:44:23;589.35;;;557.22;;
57643;SDS011;43474;46.510;6.686;2023-04-24T00:46:49;605.08;;;572.00;;
57643;SDS011;43474;46.510;6.686;2023-04-24T00:49:20;606.53;;;572.88;;
57643;SDS011;43474;46.510;6.686;2023-04-24T00:51:48;612.25;;;577.78;;
57643;SDS011;43474;46.510;6.686;2023-04-24T00:54:16;606.53;;;572.47;;
57643;SDS011;43474;46.510;6.686;2023-04-24T00:56:42;576.17;;;544.60;;
57643;SDS011;43474;46.510;6.686;2023-04-24T00:59:10;595.67;;;562.55;;
57643;SDS011;43474;46.510;6.686;2023-04-24T01:01:37;574.13;;;542.95;;
57643;SDS011;43474;46.510;6.686;2023-04-24T01:04:07;598.55;;;565.30;;
57643;SDS011;43474;46.510;6.686;2023-04-24T01:06:35;579.25;;;547.55;;
57643;SDS011;43474;46.510;6.686;2023-04-24T01:09:03;590.08;;;557.45;;
57643;SDS011;43474;46.510;6.686;2023-04-24T01:11:29;614.38;;;579.75;;
57643;SDS011;43474;46.510;6.686;2023-04-24T01:13:55;603.50;;;570.15;;
57643;SDS011;43474;46.510;6.686;2023-04-24T01:16:21;615.40;;;580.97;;
57643;SDS011;43474;46.510;6.686;2023-04-24T01:18:47;610.78;;;576.50;;
57643;SDS011;43474;46.510;6.686;2023-04-24T01:21:14;637.60;;;601.10;;
57643;SDS011;43474;46.510;6.686;2023-04-24T01:23:44;593.22;;;560.55;;
57643;SDS011;43474;46.510;6.686;2023-04-24T01:26:10;591.40;;;558.85;;
57643;SDS011;43474;46.510;6.686;2023-04-24T01:28:36;616.70;;;582.20;;
57643;SDS011;43474;46.510;6.686;2023-04-24T01:31:02;604.88;;;570.78;;
57643;SDS011;43474;46.510;6.686;2023-04-24T01:33:28;637.35;;;600.90;;
57643;SDS011;43474;46.510;6.686;2023-04-24T01:35:54;636.33;;;599.92;;
57643;SDS011;43474;46.510;6.686;2023-04-24T01:38:20;632.00;;;596.42;;
57643;SDS011;43474;46.510;6.686;2023-04-24T01:40:45;661.88;;;623.78;;
57643;SDS011;43474;46.510;6.686;2023-04-24T01:43:12;645.83;;;608.78;;
57643;SDS011;43474;46.510;6.686;2023-04-24T01:45:37;633.17;;;597.70;;
57643;SDS011;43474;46.510;6.686;2023-04-24T01:48:03;655.05;;;616.92;;
57643;SDS011;43474;46.510;6.686;2023-04-24T01:50:29;659.40;;;621.92;;
57643;SDS011;43474;46.510;6.686;2023-04-24T01:52:55;648.35;;;611.63;;
57643;SDS011;43474;46.510;6.686;2023-04-24T01:55:21;658.05;;;620.17;;
57643;SDS011;43474;46.510;6.686;2023-04-24T01:57:47;667.80;;;629.28;;
57643;SDS011;43474;46.510;6.686;2023-04-24T02:00:12;659.22;;;621.30;;
57643;SDS011;43474;46.510;6.686;2023-04-24T02:02:41;673.28;;;633.80;;
57643;SDS011;43474;46.510;6.686;2023-04-24T02:05:08;651.30;;;614.15;;
57643;SDS011;43474;46.510;6.686;2023-04-24T02:07:34;651.95;;;614.70;;
57643;SDS011;43474;46.510;6.686;2023-04-24T02:09:59;666.22;;;626.33;;
57643;SDS011;43474;46.510;6.686;2023-04-24T02:12:25;687.00;;;646.17;;
57643;SDS011;43474;46.510;6.686;2023-04-24T02:14:50;701.97;;;659.42;;
57643;SDS011;43474;46.510;6.686;2023-04-24T02:17:16;713.40;;;670.47;;
57643;SDS011;43474;46.510;6.686;2023-04-24T02:19:42;706.47;;;663.92;;
57643;SDS011;43474;46.510;6.686;2023-04-24T02:22:08;711.83;;;668.33;;
57643;SDS011;43474;46.510;6.686;2023-04-24T02:24:33;705.50;;;662.42;;
57643;SDS011;43474;46.510;6.686;2023-04-24T02:26:59;706.72;;;664.20;;
57643;SDS011;43474;46.510;6.686;2023-04-24T02:29:25;713.95;;;670.88;;
57643;SDS011;43474;46.510;6.686;2023-04-24T02:31:51;698.53;;;656.42;;
57643;SDS011;43474;46.510;6.686;2023-04-24T02:34:16;699.15;;;657.42;;
57643;SDS011;43474;46.510;6.686;2023-04-24T02:36:42;693.03;;;652.03;;
57643;SDS011;43474;46.510;6.686;2023-04-24T02:39:07;698.90;;;657.22;;
57643;SDS011;43474;46.510;6.686;2023-04-24T02:41:33;699.13;;;657.22;;
57643;SDS011;43474;46.510;6.686;2023-04-24T02:43:58;712.38;;;669.47;;
57643;SDS011;43474;46.510;6.686;2023-04-24T02:46:24;716.90;;;673.15;;
57643;SDS011;43474;46.510;6.686;2023-04-24T02:48:50;714.88;;;671.33;;
57643;SDS011;43474;46.510;6.686;2023-04-24T02:51:16;718.00;;;673.80;;
57643;SDS011;43474;46.510;6.686;2023-04-24T02:53:41;711.05;;;667.97;;
57643;SDS011;43474;46.510;6.686;2023-04-24T02:56:07;711.08;;;667.63;;
57643;SDS011;43474;46.510;6.686;2023-04-24T02:58:32;715.35;;;671.80;;
57643;SDS011;43474;46.510;6.686;2023-04-24T03:00:58;718.13;;;673.70;;
57643;SDS011;43474;46.510;6.686;2023-04-24T03:03:23;718.38;;;674.13;;
57643;SDS011;43474;46.510;6.686;2023-04-24T03:05:49;721.00;;;676.70;;
57643;SDS011;43474;46.510;6.686;2023-04-24T03:08:15;713.28;;;669.83;;
57643;SDS011;43474;46.510;6.686;2023-04-24T03:10:41;725.92;;;681.20;;
57643;SDS011;43474;46.510;6.686;2023-04-24T03:13:06;724.63;;;679.72;;
57643;SDS011;43474;46.510;6.686;2023-04-24T03:15:32;714.17;;;670.63;;
57643;SDS011;43474;46.510;6.686;2023-04-24T03:17:58;704.97;;;662.15;;
57643;SDS011;43474;46.510;6.686;2023-04-24T03:20:23;710.38;;;667.22;;
57643;SDS011;43474;46.510;6.686;2023-04-24T03:22:49;718.47;;;674.85;;
57643;SDS011;43474;46.510;6.686;2023-04-24T03:25:15;711.20;;;667.65;;
57643;SDS011;43474;46.510;6.686;2023-04-24T03:27:40;716.33;;;672.17;;
57643;SDS011;43474;46.510;6.686;2023-04-24T03:30:07;707.88;;;664.65;;
57643;SDS011;43474;46.510;6.686;2023-04-24T03:32:33;714.45;;;670.28;;
57643;SDS011;43474;46.510;6.686;2023-04-24T03:34:58;705.70;;;662.67;;
57643;SDS011;43474;46.510;6.686;2023-04-24T03:37:24;708.58;;;665.15;;
57643;SDS011;43474;46.510;6.686;2023-04-24T03:39:50;695.33;;;653.83;;
57643;SDS011;43474;46.510;6.686;2023-04-24T03:42:15;690.00;;;648.35;;
57643;SDS011;43474;46.510;6.686;2023-04-24T03:44:41;703.20;;;660.47;;
57643;SDS011;43474;46.510;6.686;2023-04-24T03:47:07;698.13;;;656.10;;
57643;SDS011;43474;46.510;6.686;2023-04-24T03:49:32;687.15;;;645.88;;
57643;SDS011;43474;46.510;6.686;2023-04-24T03:51:58;699.83;;;657.65;;
57643;SDS011;43474;46.510;6.686;2023-04-24T03:54:23;713.83;;;670.08;;
57643;SDS011;43474;46.510;6.686;2023-04-24T03:56:49;694.33;;;652.13;;
57643;SDS011;43474;46.510;6.686;2023-04-24T03:59:15;699.50;;;657.42;;
57643;SDS011;43474;46.510;6.686;2023-04-24T04:01:40;702.15;;;659.60;;
57643;SDS011;43474;46.510;6.686;2023-04-24T04:04:06;717.67;;;673.35;;
57643;SDS011;43474;46.510;6.686;2023-04-24T04:06:32;706.67;;;663.25;;
57643;SDS011;43474;46.510;6.686;2023-04-24T04:08:58;751.13;;;702.85;;
57643;SDS011;43474;46.510;6.686;2023-04-24T04:11:24;738.63;;;692.03;;
57643;SDS011;43474;46.510;6.686;2023-04-24T04:13:50;769.55;;;719.08;;
57643;SDS011;43474;46.510;6.686;2023-04-24T04:16:15;743.38;;;696.60;;
57643;SDS011;43474;46.510;6.686;2023-04-24T04:18:43;760.50;;;711.38;;
57643;SDS011;43474;46.510;6.686;2023-04-24T04:21:08;738.45;;;691.33;;
57643;SDS011;43474;46.510;6.686;2023-04-24T04:23:34;749.97;;;702.00;;
57643;SDS011;43474;46.510;6.686;2023-04-24T04:26:00;756.47;;;707.50;;
57643;SDS011;43474;46.510;6.686;2023-04-24T04:28:26;755.65;;;706.60;;
57643;SDS011;43474;46.510;6.686;2023-04-24T04:30:52;763.83;;;714.15;;
57643;SDS011;43474;46.510;6.686;2023-04-24T04:33:21;777.35;;;726.20;;
57643;SDS011;43474;46.510;6.686;2023-04-24T04:35:46;764.55;;;714.47;;
57643;SDS011;43474;46.510;6.686;2023-04-24T04:38:17;759.47;;;710.55;;
57643;SDS011;43474;46.510;6.686;2023-04-24T04:40:44;783.10;;;731.72;;
57643;SDS011;43474;46.510;6.686;2023-04-24T04:43:11;787.55;;;734.78;;
57643;SDS011;43474;46.510;6.686;2023-04-24T04:45:38;799.22;;;745.75;;
57643;SDS011;43474;46.510;6.686;2023-04-24T04:48:05;794.83;;;740.95;;
57643;SDS011;43474;46.510;6.686;2023-04-24T04:50:33;800.40;;;746.08;;
57643;SDS011;43474;46.510;6.686;2023-04-24T04:52:58;824.50;;;768.00;;
57643;SDS011;43474;46.510;6.686;2023-04-24T04:55:24;810.75;;;755.97;;
57643;SDS011;43474;46.510;6.686;2023-04-24T04:57:50;802.95;;;749.33;;
57643;SDS011;43474;46.510;6.686;2023-04-24T05:00:16;754.55;;;706.63;;
57643;SDS011;43474;46.510;6.686;2023-04-24T05:02:41;720.67;;;676.58;;
57643;SDS011;43474;46.510;6.686;2023-04-24T05:05:07;700.22;;;657.80;;
57643;SDS011;43474;46.510;6.686;2023-04-24T05:07:33;690.08;;;649.00;;
57643;SDS011;43474;46.510;6.686;2023-04-24T05:09:59;711.95;;;668.92;;
57643;SDS011;43474;46.510;6.686;2023-04-24T05:12:25;712.63;;;669.75;;
57643;SDS011;43474;46.510;6.686;2023-04-24T05:14:50;735.50;;;689.90;;
57643;SDS011;43474;46.510;6.686;2023-04-24T05:17:17;743.45;;;696.53;;
57643;SDS011;43474;46.510;6.686;2023-04-24T05:19:43;775.00;;;724.42;;
57643;SDS011;43474;46.510;6.686;2023-04-24T05:22:09;761.90;;;713.13;;
57643;SDS011;43474;46.510;6.686;2023-04-24T05:24:35;767.10;;;717.85;;
57643;SDS011;43474;46.510;6.686;2023-04-24T05:27:04;780.50;;;729.65;;
57643;SDS011;43474;46.510;6.686;2023-04-24T05:29:30;787.53;;;735.60;;
57643;SDS011;43474;46.510;6.686;2023-04-24T05:31:57;758.92;;;709.70;;
57643;SDS011;43474;46.510;6.686;2023-04-24T05:34:22;757.45;;;709.20;;
57643;SDS011;43474;46.510;6.686;2023-04-24T05:36:48;712.58;;;668.70;;
57643;SDS011;43474;46.510;6.686;2023-04-24T05:39:15;667.42;;;628.30;;
57643;SDS011;43474;46.510;6.686;2023-04-24T05:41:42;689.15;;;649.03;;
57643;SDS011;43474;46.510;6.686;2023-04-24T05:44:07;696.78;;;655.63;;
57643;SDS011;43474;46.510;6.686;2023-04-24T05:46:33;584.03;;;549.60;;
57643;SDS011;43474;46.510;6.686;2023-04-24T05:48:58;659.47;;;621.10;;
57643;SDS011;43474;46.510;6.686;2023-04-24T05:51:24;644.58;;;607.78;;
57643;SDS011;43474;46.510;6.686;2023-04-24T05:53:49;679.72;;;639.63;;
57643;SDS011;43474;46.510;6.686;2023-04-24T05:56:15;697.53;;;655.45;;
57643;SDS011;43474;46.510;6.686;2023-04-24T05:58:41;686.92;;;646.28;;
57643;SDS011;43474;46.510;6.686;2023-04-24T06:01:07;687.13;;;646.65;;
57643;SDS011;43474;46.510;6.686;2023-04-24T06:03:32;696.47;;;654.88;;
57643;SDS011;43474;46.510;6.686;2023-04-24T06:05:58;702.50;;;660.17;;
57643;SDS011;43474;46.510;6.686;2023-04-24T06:08:24;751.90;;;704.17;;
57643;SDS011;43474;46.510;6.686;2023-04-24T06:10:49;775.88;;;724.78;;
57643;SDS011;43474;46.510;6.686;2023-04-24T06:13:15;761.55;;;712.88;;
57643;SDS011;43474;46.510;6.686;2023-04-24T06:15:41;738.92;;;692.20;;
57643;SDS011;43474;46.510;6.686;2023-04-24T06:18:07;760.15;;;711.60;;
57643;SDS011;43474;46.510;6.686;2023-04-24T06:20:35;722.83;;;678.42;;
57643;SDS011;43474;46.510;6.686;2023-04-24T06:23:01;692.05;;;650.75;;
57643;SDS011;43474;46.510;6.686;2023-04-24T06:25:27;732.40;;;686.45;;
57643;SDS011;43474;46.510;6.686;2023-04-24T06:27:53;730.50;;;685.10;;
57643;SDS011;43474;46.510;6.686;2023-04-24T06:30:20;739.72;;;693.28;;
57643;SDS011;43474;46.510;6.686;2023-04-24T06:32:45;707.60;;;664.42;;
57643;SDS011;43474;46.510;6.686;2023-04-24T06:35:11;713.70;;;669.90;;
57643;SDS011;43474;46.510;6.686;2023-04-24T06:37:38;714.28;;;670.33;;
57643;SDS011;43474;46.510;6.686;2023-04-24T06:40:05;713.60;;;670.15;;
57643;SDS011;43474;46.510;6.686;2023-04-24T06:42:31;691.35;;;649.65;;
57643;SDS011;43474;46.510;6.686;2023-04-24T06:44:57;701.08;;;658.70;;
57643;SDS011;43474;46.510;6.686;2023-04-24T06:47:22;688.08;;;646.78;;
57643;SDS011;43474;46.510;6.686;2023-04-24T06:49:48;690.25;;;648.72;;
57643;SDS011;43474;46.510;6.686;2023-04-24T06:52:16;710.58;;;667.38;;
57643;SDS011;43474;46.510;6.686;2023-04-24T06:54:41;727.63;;;682.95;;
57643;SDS011;43474;46.510;6.686;2023-04-24T06:57:08;711.70;;;668.05;;
57643;SDS011;43474;46.510;6.686;2023-04-24T06:59:34;709.67;;;666.05;;
57643;SDS011;43474;46.510;6.686;2023-04-24T07:01:59;707.53;;;665.22;;
57643;SDS011;43474;46.510;6.686;2023-04-24T07:04:25;686.78;;;646.05;;
57643;SDS011;43474;46.510;6.686;2023-04-24T07:06:51;719.70;;;675.67;;
57643;SDS011;43474;46.510;6.686;2023-04-24T07:09:19;723.30;;;678.67;;
57643;SDS011;43474;46.510;6.686;2023-04-24T07:11:45;654.08;;;615.38;;
57643;SDS011;43474;46.510;6.686;2023-04-24T07:14:11;608.92;;;574.42;;
57643;SDS011;43474;46.510;6.686;2023-04-24T07:16:37;762.65;;;713.78;;
57643;SDS011;43474;46.510;6.686;2023-04-24T07:19:03;792.67;;;740.25;;
57643;SDS011;43474;46.510;6.686;2023-04-24T07:21:29;851.15;;;791.97;;
57643;SDS011;43474;46.510;6.686;2023-04-24T07:23:57;889.10;;;823.90;;
57643;SDS011;43474;46.510;6.686;2023-04-24T07:26:23;783.67;;;730.03;;
57643;SDS011;43474;46.510;6.686;2023-04-24T07:28:49;613.60;;;578.03;;
57643;SDS011;43474;46.510;6.686;2023-04-24T07:31:14;755.05;;;703.95;;
57643;SDS011;43474;46.510;6.686;2023-04-24T07:33:40;209.55;;;199.50;;
57643;SDS011;43474;46.510;6.686;2023-04-24T07:36:05;138.20;;;131.77;;
57643;SDS011;43474;46.510;6.686;2023-04-24T07:38:32;89.18;;;84.82;;
57643;SDS011;43474;46.510;6.686;2023-04-24T07:40:57;95.05;;;90.70;;
57643;SDS011;43474;46.510;6.686;2023-04-24T07:43:23;91.50;;;87.40;;
57643;SDS011;43474;46.510;6.686;2023-04-24T07:45:49;107.72;;;102.90;;
57643;SDS011;43474;46.510;6.686;2023-04-24T07:48:16;75.72;;;72.40;;
57643;SDS011;43474;46.510;6.686;2023-04-24T07:50:42;90.32;;;86.32;;
57643;SDS011;43474;46.510;6.686;2023-04-24T07:53:09;117.80;;;112.50;;
57643;SDS011;43474;46.510;6.686;2023-04-24T07:55:35;378.75;;;358.38;;
57643;SDS011;43474;46.510;6.686;2023-04-24T07:58:00;208.77;;;198.48;;
57643;SDS011;43474;46.510;6.686;2023-04-24T08:00:26;316.63;;;300.58;;
57643;SDS011;43474;46.510;6.686;2023-04-24T08:02:52;494.73;;;465.85;;
57643;SDS011;43474;46.510;6.686;2023-04-24T08:05:17;397.95;;;376.65;;
57643;SDS011;43474;46.510;6.686;2023-04-24T08:07:43;225.23;;;214.43;;
57643;SDS011;43474;46.510;6.686;2023-04-24T08:10:11;397.48;;;376.30;;
57643;SDS011;43474;46.510;6.686;2023-04-24T08:12:37;672.05;;;628.08;;
57643;SDS011;43474;46.510;6.686;2023-04-24T08:15:03;403.60;;;382.67;;
57643;SDS011;43474;46.510;6.686;2023-04-24T08:17:30;350.75;;;332.15;;
57643;SDS011;43474;46.510;6.686;2023-04-24T08:19:55;312.88;;;297.73;;
57643;SDS011;43474;46.510;6.686;2023-04-24T08:22:27;319.52;;;303.02;;
57643;SDS011;43474;46.510;6.686;2023-04-24T08:24:53;479.23;;;452.65;;
57643;SDS011;43474;46.510;6.686;2023-04-24T08:27:19;510.80;;;481.67;;
57643;SDS011;43474;46.510;6.686;2023-04-24T08:29:45;605.15;;;569.00;;
57643;SDS011;43474;46.510;6.686;2023-04-24T08:32:11;602.72;;;566.20;;
57643;SDS011;43474;46.510;6.686;2023-04-24T08:34:36;156.60;;;148.75;;
57643;SDS011;43474;46.510;6.686;2023-04-24T08:37:02;92.47;;;88.30;;
57643;SDS011;43474;46.510;6.686;2023-04-24T08:39:28;458.00;;;431.95;;
57643;SDS011;43474;46.510;6.686;2023-04-24T08:41:54;93.57;;;89.35;;
57643;SDS011;43474;46.510;6.686;2023-04-24T08:44:20;115.57;;;110.10;;
57643;SDS011;43474;46.510;6.686;2023-04-24T08:46:47;163.38;;;156.05;;
57643;SDS011;43474;46.510;6.686;2023-04-24T08:49:14;169.63;;;161.80;;
57643;SDS011;43474;46.510;6.686;2023-04-24T08:51:43;128.20;;;122.28;;
57643;SDS011;43474;46.510;6.686;2023-04-24T08:54:10;608.03;;;573.05;;
57643;SDS011;43474;46.510;6.686;2023-04-24T08:56:37;179.55;;;171.52;;
57643;SDS011;43474;46.510;6.686;2023-04-24T08:59:05;607.30;;;571.63;;
57643;SDS011;43474;46.510;6.686;2023-04-24T09:01:32;543.47;;;514.95;;
57643;SDS011;43474;46.510;6.686;2023-04-24T09:03:59;588.88;;;554.97;;
57643;SDS011;43474;46.510;6.686;2023-04-24T09:06:29;686.47;;;643.47;;
57643;SDS011;43474;46.510;6.686;2023-04-24T09:08:55;670.88;;;630.92;;
57643;SDS011;43474;46.510;6.686;2023-04-24T09:11:24;478.13;;;452.70;;
57643;SDS011;43474;46.510;6.686;2023-04-24T09:13:50;447.83;;;424.13;;
57643;SDS011;43474;46.510;6.686;2023-04-24T09:16:16;430.10;;;408.27;;
57643;SDS011;43474;46.510;6.686;2023-04-24T09:18:42;457.98;;;433.85;;
57643;SDS011;43474;46.510;6.686;2023-04-24T09:21:09;512.00;;;485.05;;
57643;SDS011;43474;46.510;6.686;2023-04-24T09:23:35;464.05;;;440.25;;
57643;SDS011;43474;46.510;6.686;2023-04-24T09:26:01;375.13;;;356.55;;
57643;SDS011;43474;46.510;6.686;2023-04-24T09:28:35;360.85;;;343.20;;
57643;SDS011;43474;46.510;6.686;2023-04-24T09:31:02;265.92;;;253.85;;
57643;SDS011;43474;46.510;6.686;2023-04-24T09:33:29;347.67;;;330.85;;
57643;SDS011;43474;46.510;6.686;2023-04-24T09:35:55;282.85;;;270.05;;
57643;SDS011;43474;46.510;6.686;2023-04-24T09:38:30;257.83;;;246.30;;
57643;SDS011;43474;46.510;6.686;2023-04-24T09:41:01;225.60;;;215.32;;
57643;SDS011;43474;46.510;6.686;2023-04-24T09:43:28;216.75;;;207.13;;
57643;SDS011;43474;46.510;6.686;2023-04-24T09:45:56;225.27;;;215.18;;
57643;SDS011;43474;46.510;6.686;2023-04-24T09:48:35;243.82;;;232.50;;
57643;SDS011;43474;46.510;6.686;2023-04-24T09:51:02;185.30;;;176.85;;
57643;SDS011;43474;46.510;6.686;2023-04-24T09:53:29;127.47;;;121.63;;
57643;SDS011;43474;46.510;6.686;2023-04-24T09:55:56;149.48;;;142.60;;
57643;SDS011;43474;46.510;6.686;2023-04-24T09:58:28;430.13;;;407.98;;
57643;SDS011;43474;46.510;6.686;2023-04-24T10:00:54;440.40;;;414.45;;
57643;SDS011;43474;46.510;6.686;2023-04-24T10:03:25;390.45;;;370.73;;
57643;SDS011;43474;46.510;6.686;2023-04-24T10:05:52;389.23;;;370.20;;
57643;SDS011;43474;46.510;6.686;2023-04-24T10:08:18;316.48;;;301.65;;
57643;SDS011;43474;46.510;6.686;2023-04-24T10:10:45;282.27;;;269.65;;
57643;SDS011;43474;46.510;6.686;2023-04-24T10:13:11;351.42;;;334.50;;
57643;SDS011;43474;46.510;6.686;2023-04-24T10:15:38;558.20;;;526.97;;
57643;SDS011;43474;46.510;6.686;2023-04-24T10:18:05;596.65;;;563.20;;
57643;SDS011;43474;46.510;6.686;2023-04-24T10:20:32;505.33;;;477.02;;
57643;SDS011;43474;46.510;6.686;2023-04-24T10:23:00;586.00;;;552.40;;
57643;SDS011;43474;46.510;6.686;2023-04-24T10:25:27;629.83;;;589.28;;
57643;SDS011;43474;46.510;6.686;2023-04-24T10:27:55;624.45;;;588.45;;
57643;SDS011;43474;46.510;6.686;2023-04-24T10:30:26;671.40;;;631.25;;
57643;SDS011;43474;46.510;6.686;2023-04-24T10:32:53;634.33;;;594.30;;
57643;SDS011;43474;46.510;6.686;2023-04-24T10:35:19;642.80;;;603.70;;
57643;SDS011;43474;46.510;6.686;2023-04-24T10:37:50;678.85;;;637.53;;
57643;SDS011;43474;46.510;6.686;2023-04-24T10:40:30;656.33;;;614.78;;
57643;SDS011;43474;46.510;6.686;2023-04-24T10:42:57;621.38;;;582.55;;
57643;SDS011;43474;46.510;6.686;2023-04-24T10:45:24;565.47;;;533.17;;
57643;SDS011;43474;46.510;6.686;2023-04-24T10:47:50;688.80;;;645.33;;
57643;SDS011;43474;46.510;6.686;2023-04-24T10:50:21;644.75;;;606.80;;
57643;SDS011;43474;46.510;6.686;2023-04-24T10:52:47;700.50;;;655.58;;
57643;SDS011;43474;46.510;6.686;2023-04-24T10:55:16;716.88;;;671.55;;
57643;SDS011;43474;46.510;6.686;2023-04-24T10:58:06;757.25;;;707.55;;
57643;SDS011;43474;46.510;6.686;2023-04-24T11:00:32;689.00;;;646.05;;
57643;SDS011;43474;46.510;6.686;2023-04-24T11:02:57;738.42;;;689.03;;
57643;SDS011;43474;46.510;6.686;2023-04-24T11:05:48;740.30;;;690.83;;
57643;SDS011;43474;46.510;6.686;2023-04-24T11:08:22;589.17;;;554.92;;
57643;SDS011;43474;46.510;6.686;2023-04-24T11:10:56;703.17;;;658.85;;
57643;SDS011;43474;46.510;6.686;2023-04-24T11:14:09;687.13;;;643.58;;
57643;SDS011;43474;46.510;6.686;2023-04-24T11:22:00;778.72;;;725.72;;
57643;SDS011;43474;46.510;6.686;2023-04-24T11:26:59;662.83;;;619.38;;
57643;SDS011;43474;46.510;6.686;2023-04-24T11:29:41;735.55;;;688.35;;
57643;SDS011;43474;46.510;6.686;2023-04-24T11:34:47;616.67;;;578.83;;
57643;SDS011;43474;46.510;6.686;2023-04-24T11:37:14;568.95;;;536.10;;
57643;SDS011;43474;46.510;6.686;2023-04-24T11:39:40;571.42;;;538.40;;
57643;SDS011;43474;46.510;6.686;2023-04-24T11:42:06;516.75;;;484.42;;
57643;SDS011;43474;46.510;6.686;2023-04-24T11:44:33;608.22;;;571.63;;
57643;SDS011;43474;46.510;6.686;2023-04-24T11:47:00;660.03;;;620.13;;
57643;SDS011;43474;46.510;6.686;2023-04-24T11:49:25;601.22;;;566.08;;
57643;SDS011;43474;46.510;6.686;2023-04-24T11:51:54;668.72;;;628.03;;
57643;SDS011;43474;46.510;6.686;2023-04-24T11:54:20;522.13;;;493.40;;
57643;SDS011;43474;46.510;6.686;2023-04-24T11:56:47;578.65;;;545.08;;
57643;SDS011;43474;46.510;6.686;2023-04-24T11:59:13;751.72;;;701.72;;
57643;SDS011;43474;46.510;6.686;2023-04-24T12:01:43;641.33;;;603.85;;
57643;SDS011;43474;46.510;6.686;2023-04-24T12:04:12;646.90;;;607.60;;
57643;SDS011;43474;46.510;6.686;2023-04-24T12:06:39;633.67;;;594.97;;
57643;SDS011;43474;46.510;6.686;2023-04-24T12:09:04;601.20;;;566.05;;
57643;SDS011;43474;46.510;6.686;2023-04-24T12:11:30;712.35;;;666.40;;
57643;SDS011;43474;46.510;6.686;2023-04-24T12:13:55;600.92;;;565.95;;
57643;SDS011;43474;46.510;6.686;2023-04-24T12:16:21;557.15;;;523.60;;
57643;SDS011;43474;46.510;6.686;2023-04-24T12:18:47;579.95;;;546.38;;
57643;SDS011;43474;46.510;6.686;2023-04-24T12:23:42;512.13;;;483.42;;
57643;SDS011;43474;46.510;6.686;2023-04-24T12:26:10;658.72;;;618.38;;
57643;SDS011;43474;46.510;6.686;2023-04-24T12:28:36;619.00;;;582.53;;
57643;SDS011;43474;46.510;6.686;2023-04-24T12:31:02;682.75;;;640.10;;
57643;SDS011;43474;46.510;6.686;2023-04-24T12:33:31;558.60;;;527.92;;
57643;SDS011;43474;46.510;6.686;2023-04-24T12:35:58;603.22;;;568.63;;
57643;SDS011;43474;46.510;6.686;2023-04-24T12:38:25;567.05;;;535.75;;
57643;SDS011;43474;46.510;6.686;2023-04-24T12:41:05;720.92;;;673.65;;
57643;SDS011;43474;46.510;6.686;2023-04-24T12:43:34;599.88;;;564.90;;
57643;SDS011;43474;46.510;6.686;2023-04-24T12:46:00;557.28;;;526.17;;
57643;SDS011;43474;46.510;6.686;2023-04-24T12:48:26;549.65;;;519.28;;
57643;SDS011;43474;46.510;6.686;2023-04-24T12:50:52;465.02;;;439.33;;
57643;SDS011;43474;46.510;6.686;2023-04-24T12:53:18;487.42;;;461.55;;
57643;SDS011;43474;46.510;6.686;2023-04-24T12:55:44;530.20;;;500.95;;
57643;SDS011;43474;46.510;6.686;2023-04-24T12:58:12;558.20;;;526.60;;
57643;SDS011;43474;46.510;6.686;2023-04-24T13:00:38;467.60;;;441.85;;
57643;SDS011;43474;46.510;6.686;2023-04-24T13:03:04;598.97;;;565.05;;
57643;SDS011;43474;46.510;6.686;2023-04-24T13:05:29;555.17;;;523.92;;
57643;SDS011;43474;46.510;6.686;2023-04-24T13:07:56;462.23;;;437.55;;
57643;SDS011;43474;46.510;6.686;2023-04-24T13:10:22;504.83;;;477.35;;
57643;SDS011;43474;46.510;6.686;2023-04-24T13:12:48;672.67;;;631.25;;
57643;SDS011;43474;46.510;6.686;2023-04-24T13:15:14;477.42;;;451.42;;
57643;SDS011;43474;46.510;6.686;2023-04-24T13:17:39;470.95;;;444.65;;
57643;SDS011;43474;46.510;6.686;2023-04-24T13:20:05;494.55;;;468.30;;
57643;SDS011;43474;46.510;6.686;2023-04-24T13:22:31;507.55;;;480.35;;
57643;SDS011;43474;46.510;6.686;2023-04-24T13:24:57;391.95;;;372.05;;
57643;SDS011;43474;46.510;6.686;2023-04-24T13:27:22;477.80;;;451.80;;
57643;SDS011;43474;46.510;6.686;2023-04-24T13:29:48;496.67;;;469.52;;
57643;SDS011;43474;46.510;6.686;2023-04-24T13:32:13;510.98;;;482.63;;
57643;SDS011;43474;46.510;6.686;2023-04-24T13:34:39;463.33;;;438.02;;
57643;SDS011;43474;46.510;6.686;2023-04-24T13:37:05;465.45;;;440.52;;
57643;SDS011;43474;46.510;6.686;2023-04-24T13:39:31;456.42;;;432.98;;
57643;SDS011;43474;46.510;6.686;2023-04-24T13:41:58;571.67;;;539.08;;
57643;SDS011;43474;46.510;6.686;2023-04-24T13:44:24;484.25;;;457.38;;
57643;SDS011;43474;46.510;6.686;2023-04-24T13:46:51;376.30;;;356.98;;
57643;SDS011;43474;46.510;6.686;2023-04-24T13:49:20;526.80;;;497.40;;
57643;SDS011;43474;46.510;6.686;2023-04-24T13:51:46;410.33;;;389.70;;
57643;SDS011;43474;46.510;6.686;2023-04-24T13:54:12;528.92;;;499.67;;
57643;SDS011;43474;46.510;6.686;2023-04-24T13:56:39;445.20;;;421.25;;
57643;SDS011;43474;46.510;6.686;2023-04-24T13:59:05;508.70;;;480.98;;
57643;SDS011;43474;46.510;6.686;2023-04-24T14:01:31;444.33;;;420.67;;
57643;SDS011;43474;46.510;6.686;2023-04-24T14:03:57;399.10;;;379.30;;
57643;SDS011;43474;46.510;6.686;2023-04-24T14:06:22;491.05;;;464.73;;